EDDB Airport Information

Runway Information
Runway 07L Length 8891 ft width 148 ft
Elevation 148 ft Threshold 0 ft Heading 69
Runway 25R Length 8891 ft Width 148 ft
Elevation 145 ft Threshold 0 ft Heading 249
Runway 07R Length 9843 ft width 148 ft
Elevation 146 ft Threshold 0 ft Heading 69
Runway 25L Length 9843 ft Width 148 ft
Elevation 155 ft Threshold 0 ft Heading 249
Airport Frequencies
Type AFIS Name BERLIN INF Frequency 132.65 MHZ
Type APP Name BERLIN ARR Frequency 119.625 MHZ
Type ATIS Name ATIS Frequency 124.95 MHZ
Type DEP Name BERLIN DEP Frequency 120.625 MHZ
Type DIR Name BERLIN DIR Frequency 136.1 MHZ
Type GND Name GND Frequency 121.6 MHZ
Type INFO Name INFO Frequency 122.7 MHZ
Type TWR Name TWR Frequency 120.025 MHZ
Airport Navaids
Type DME Name Schonefeld Frequency 114400 KHZ
Type NDB Name Schonefeld Frequency 362 KHZ
Airport Weather Information & NOTAM
ADDS - METARS form results

(0059 UTC 25 August 2019)
Data provider http://aviationweather.gov/metar/data/
 
METAR text: EDDB 250050Z 07008KT CAVOK 20/12 Q1021 NOSIG
Conditions at: EDDB (BERLIN/SCHONEFEL, DE) observed 0050 UTC 25 August 2019
Temperature: 20.0°C (68°F)
Dewpoint: 12.0°C (54°F) [RH = 60%]
Pressure (altimeter): 30.15 inches Hg (1021.0 mb)
Winds: from the ENE (70 degrees) at 9 MPH (8 knots; 4.1 m/s)
Visibility: 6 or more miles (10+ km)
Ceiling: ceiling and visibility are OK
Clouds: unknown
Weather: no significant weather observed at this time

METAR text: EDDB 250020Z 07007KT CAVOK 20/12 Q1021 NOSIG
Conditions at: EDDB (BERLIN/SCHONEFEL, DE) observed 0020 UTC 25 August 2019
Temperature: 20.0°C (68°F)
Dewpoint: 12.0°C (54°F) [RH = 60%]
Pressure (altimeter): 30.15 inches Hg (1021.0 mb)
Winds: from the ENE (70 degrees) at 8 MPH (7 knots; 3.6 m/s)
Visibility: 6 or more miles (10+ km)
Ceiling: ceiling and visibility are OK
Clouds: unknown
Weather: no significant weather observed at this time

Forecast for: EDDB (BERLIN/SCHONEFEL, DE)
Text: TAF EDDB 242300Z 2500/2524 08006KT CAVOK
Forecast period: 0000 to 0700 UTC 25 August 2019
Forecast type: FROM: standard forecast or significant change
Winds: from the E (80 degrees) at 7 MPH (6 knots; 3.1 m/s)
Visibility: 6 or more miles 10+ km)
Ceiling: unknown
Clouds: missing
Weather: NSW  (no significant weather)
Text: BECMG 2507/2509 10011KT
Forecast period: 0700 to 1600 UTC 25 August 2019
Forecast type: BECOMING: Conditions expected to become as follows by 0900 UTC 25 August 2019
Winds: from the E (100 degrees) at 13 MPH (11 knots; 5.7 m/s)
Visibility: 6 or more miles 10+ km)
Ceiling: unknown
Clouds: missing
Weather: NSW  (no significant weather)
Text: BECMG 2516/2518 08006KT
Forecast period: 1600 UTC 25 August 2019 to 0000 UTC 26 August 2019
Forecast type: BECOMING: Conditions expected to become as follows by 1800 UTC 25 August 2019
Winds: from the E (80 degrees) at 7 MPH (6 knots; 3.1 m/s)
Visibility: 6 or more miles 10+ km)
Ceiling: unknown
Clouds: missing
Weather: NSW  (no significant weather)